createdAt,value
2023-04-18T00:00:06.383Z,95004.00
2023-04-18T00:01:06.407Z,95006.00
2023-04-18T00:02:06.463Z,95004.00
2023-04-18T00:03:06.659Z,95006.00
2023-04-18T00:04:06.701Z,95002.00
2023-04-18T00:05:06.511Z,95002.00
2023-04-18T00:06:06.551Z,95000.00
2023-04-18T00:07:06.560Z,95000.00
2023-04-18T00:08:06.496Z,95000.00
2023-04-18T00:09:06.535Z,94996.00
2023-04-18T00:10:06.566Z,94998.00
2023-04-18T00:11:06.513Z,94996.00
2023-04-18T00:12:06.588Z,94996.00
2023-04-18T00:13:06.582Z,94996.00
2023-04-18T00:14:06.600Z,94996.00
2023-04-18T00:15:06.609Z,94994.00
2023-04-18T00:16:06.607Z,94994.00
2023-04-18T00:17:06.743Z,94996.00
2023-04-18T00:18:06.656Z,94996.00
2023-04-18T00:19:06.643Z,94996.00
2023-04-18T00:20:06.635Z,94992.00
2023-04-18T00:21:06.657Z,94991.00
2023-04-18T00:22:06.706Z,94991.00
2023-04-18T00:23:06.708Z,94991.00
2023-04-18T00:24:06.709Z,94992.00
2023-04-18T00:25:06.706Z,94992.00
2023-04-18T00:26:06.723Z,94992.00
2023-04-18T00:27:06.690Z,94992.00
2023-04-18T00:28:06.738Z,94992.00
2023-04-18T00:29:06.747Z,94994.00
2023-04-18T00:30:06.834Z,94992.00
2023-04-18T00:31:06.869Z,94992.00
2023-04-18T00:32:06.821Z,94994.00
2023-04-18T00:33:06.838Z,94992.00
2023-04-18T00:34:06.828Z,94994.00
2023-04-18T00:35:06.847Z,94992.00
2023-04-18T00:36:06.883Z,94991.00
2023-04-18T00:37:06.893Z,94991.00
2023-04-18T00:38:06.969Z,94991.00
2023-04-18T00:39:06.924Z,94994.00
2023-04-18T00:40:06.960Z,94991.00
2023-04-18T00:41:06.973Z,94994.00
2023-04-18T00:42:06.999Z,94991.00
2023-04-18T00:43:06.992Z,94991.00
2023-04-18T00:44:06.998Z,94991.00
2023-04-18T00:45:07.041Z,94991.00
2023-04-18T00:46:07.107Z,94992.00
2023-04-18T00:47:07.061Z,94991.00
2023-04-18T00:48:07.196Z,94989.00
2023-04-18T00:49:07.140Z,94989.00
2023-04-18T00:50:07.140Z,94987.00
2023-04-18T00:51:07.144Z,94987.00
2023-04-18T00:52:07.165Z,94987.00
2023-04-18T00:53:07.216Z,94987.00
2023-04-18T00:54:07.216Z,94987.00
2023-04-18T00:55:07.223Z,94987.00
2023-04-18T00:56:07.227Z,94985.00
2023-04-18T00:57:07.279Z,94985.00
2023-04-18T00:58:07.299Z,94985.00
2023-04-18T00:59:07.347Z,94985.00
2023-04-18T01:00:07.366Z,94985.00
2023-04-18T01:01:07.373Z,94987.00
2023-04-18T01:02:07.406Z,94985.00
2023-04-18T01:03:07.538Z,94987.00
2023-04-18T01:04:07.478Z,94987.00
2023-04-18T01:05:07.501Z,94983.00
2023-04-18T01:06:07.498Z,94987.00
2023-04-18T01:07:07.711Z,94985.00
2023-04-18T01:08:07.598Z,94983.00
2023-04-18T01:09:07.586Z,94983.00
2023-04-18T01:10:07.591Z,94983.00
2023-04-18T01:11:07.592Z,94985.00
2023-04-18T01:12:07.678Z,94989.00
2023-04-18T01:13:07.651Z,94985.00
2023-04-18T01:14:07.654Z,94985.00
2023-04-18T01:15:07.738Z,94983.00
2023-04-18T01:16:07.761Z,94983.00
2023-04-18T01:17:07.753Z,94983.00
2023-04-18T01:18:07.791Z,94981.00
2023-04-18T01:19:07.799Z,94983.00
2023-04-18T01:20:07.856Z,94981.00
2023-04-18T01:21:07.871Z,94979.00
2023-04-18T01:22:07.863Z,94977.00
2023-04-18T01:23:07.877Z,94975.00
2023-04-18T01:24:07.923Z,94977.00
2023-04-18T01:25:07.939Z,94973.00
2023-04-18T01:26:07.962Z,94973.00
2023-04-18T01:27:08.005Z,94977.00
2023-04-18T01:28:08.015Z,94975.00
2023-04-18T01:29:08.059Z,94973.00
2023-04-18T01:30:08.081Z,94973.00
2023-04-18T01:31:08.162Z,94971.00
2023-04-18T01:32:08.156Z,94971.00
2023-04-18T01:33:08.173Z,94971.00
2023-04-18T01:34:08.226Z,94973.00
2023-04-18T01:35:08.215Z,94973.00
2023-04-18T01:36:08.270Z,94977.00
2023-04-18T01:37:08.292Z,94975.00
2023-04-18T01:38:08.279Z,94975.00
2023-04-18T01:39:08.338Z,94971.00
2023-04-18T01:40:08.347Z,94971.00
2023-04-18T01:41:08.417Z,94971.00
2023-04-18T01:42:08.425Z,94971.00
2023-04-18T01:43:08.425Z,94967.00
2023-04-18T01:44:08.481Z,94969.00
2023-04-18T01:45:08.487Z,94969.00
2023-04-18T01:46:08.583Z,94973.00
2023-04-18T01:47:08.549Z,94967.00
2023-04-18T01:48:08.565Z,94965.00
2023-04-18T01:49:08.621Z,94965.00
2023-04-18T01:50:08.625Z,94967.00
2023-04-18T01:51:08.678Z,94967.00
2023-04-18T01:52:08.662Z,94967.00
2023-04-18T01:53:08.701Z,94969.00
2023-04-18T01:54:08.760Z,94967.00
2023-04-18T01:55:08.749Z,94965.00
2023-04-18T01:56:08.821Z,94971.00
2023-04-18T01:57:08.823Z,94973.00
2023-04-18T01:58:08.847Z,94971.00
2023-04-18T01:59:08.849Z,94971.00
2023-04-18T02:00:08.974Z,94971.00
2023-04-18T02:01:09.012Z,94971.00
2023-04-18T02:02:08.955Z,94973.00
2023-04-18T02:03:09.142Z,94969.00
2023-04-18T02:04:09.131Z,94969.00
2023-04-18T02:05:09.024Z,94969.00
2023-04-18T02:06:09.104Z,94965.00
2023-04-18T02:07:09.112Z,94965.00
2023-04-18T02:08:09.133Z,94967.00
2023-04-18T02:09:09.156Z,94969.00
2023-04-18T02:10:09.165Z,94965.00
2023-04-18T02:11:09.183Z,94967.00
2023-04-18T02:12:09.246Z,94969.00
2023-04-18T02:13:09.246Z,94969.00
2023-04-18T02:14:09.297Z,94971.00
2023-04-18T02:15:09.301Z,94969.00
2023-04-18T02:16:09.468Z,94967.00
2023-04-18T02:17:09.392Z,94969.00
2023-04-18T02:18:09.441Z,94969.00
2023-04-18T02:19:09.431Z,94965.00
2023-04-18T02:20:09.450Z,94969.00
2023-04-18T02:21:09.437Z,94965.00
2023-04-18T02:22:09.564Z,94967.00
2023-04-18T02:23:09.513Z,94967.00
2023-04-18T02:24:09.598Z,94969.00
2023-04-18T02:25:09.577Z,94969.00
2023-04-18T02:26:09.585Z,94971.00
2023-04-18T02:27:09.627Z,94973.00
2023-04-18T02:28:09.656Z,94971.00
2023-04-18T02:29:09.707Z,94971.00
2023-04-18T02:30:09.781Z,94973.00
2023-04-18T02:31:09.717Z,94973.00
2023-04-18T02:32:09.790Z,94971.00
2023-04-18T02:33:09.811Z,94973.00
2023-04-18T02:34:09.861Z,94975.00
2023-04-18T02:35:09.912Z,94971.00
2023-04-18T02:36:09.883Z,94973.00
2023-04-18T02:37:09.973Z,94975.00
2023-04-18T02:38:09.990Z,94971.00
2023-04-18T02:39:10.007Z,94975.00
2023-04-18T02:40:10.023Z,94975.00
2023-04-18T02:41:10.049Z,94973.00
2023-04-18T02:42:10.103Z,94975.00
2023-04-18T02:43:10.107Z,94973.00
2023-04-18T02:44:10.179Z,94977.00
2023-04-18T02:45:10.182Z,94971.00
2023-04-18T02:46:10.300Z,94973.00
2023-04-18T02:47:10.249Z,94975.00
2023-04-18T02:48:10.337Z,94973.00
2023-04-18T02:49:10.335Z,94973.00
2023-04-18T02:50:10.355Z,94973.00
2023-04-18T02:51:10.438Z,94973.00
2023-04-18T02:52:10.452Z,94971.00
2023-04-18T02:53:10.493Z,94973.00
2023-04-18T02:54:10.505Z,94973.00
2023-04-18T02:55:10.576Z,94971.00
2023-04-18T02:56:10.575Z,94969.00
2023-04-18T02:57:10.591Z,94967.00
2023-04-18T02:58:10.615Z,94967.00
2023-04-18T02:59:10.649Z,94967.00
2023-04-18T03:00:10.693Z,94967.00
2023-04-18T03:01:10.761Z,94967.00
2023-04-18T03:02:10.779Z,94965.00
2023-04-18T03:03:10.889Z,94965.00
2023-04-18T03:04:10.819Z,94965.00
2023-04-18T03:05:10.857Z,94965.00
2023-04-18T03:06:10.877Z,94965.00
2023-04-18T03:07:10.900Z,94969.00
2023-04-18T03:08:10.922Z,94965.00
2023-04-18T03:09:10.954Z,94963.00
2023-04-18T03:10:10.971Z,94965.00
2023-04-18T03:11:11.050Z,94963.00
2023-04-18T03:12:11.085Z,94963.00
2023-04-18T03:13:11.136Z,94961.00
2023-04-18T03:14:11.347Z,94961.00
2023-04-18T03:15:11.185Z,94961.00
2023-04-18T03:16:11.251Z,94961.00
2023-04-18T03:17:11.222Z,94963.00
2023-04-18T03:18:11.266Z,94961.00
2023-04-18T03:19:11.334Z,94961.00
2023-04-18T03:20:11.343Z,94963.00
2023-04-18T03:21:11.368Z,94963.00
2023-04-18T03:22:11.392Z,94961.00
2023-04-18T03:23:11.422Z,94963.00
2023-04-18T03:24:12.334Z,94959.00
2023-04-18T03:25:11.497Z,94959.00
2023-04-18T03:26:11.529Z,94959.00
2023-04-18T03:27:11.544Z,94957.00
2023-04-18T03:28:11.598Z,94957.00
2023-04-18T03:29:11.573Z,94957.00
2023-04-18T03:30:11.637Z,94957.00
2023-04-18T03:31:11.685Z,94957.00
2023-04-18T03:32:11.668Z,94959.00
2023-04-18T03:33:11.717Z,94963.00
2023-04-18T03:34:11.946Z,94959.00
2023-04-18T03:35:11.806Z,94959.00
2023-04-18T03:36:11.821Z,94959.00
2023-04-18T03:37:11.826Z,94959.00
2023-04-18T03:38:11.912Z,94961.00
2023-04-18T03:39:11.920Z,94961.00
2023-04-18T03:40:11.983Z,94963.00
2023-04-18T03:41:11.969Z,94961.00
2023-04-18T03:42:12.068Z,94963.00
2023-04-18T03:43:12.048Z,94963.00
2023-04-18T03:44:12.193Z,94961.00
2023-04-18T03:45:12.138Z,94959.00
2023-04-18T03:46:12.193Z,94961.00
2023-04-18T03:47:12.177Z,94963.00
2023-04-18T03:48:12.246Z,94957.00
2023-04-18T03:49:12.253Z,94959.00
2023-04-18T03:50:12.310Z,94959.00
2023-04-18T03:51:12.379Z,94957.00
2023-04-18T03:52:12.376Z,94959.00
2023-04-18T03:53:12.379Z,94959.00
2023-04-18T03:54:12.662Z,94957.00
2023-04-18T03:55:12.503Z,94957.00
2023-04-18T03:56:12.518Z,94957.00
2023-04-18T03:57:12.563Z,94957.00
2023-04-18T03:58:12.643Z,94959.00
2023-04-18T03:59:12.619Z,94957.00
2023-04-18T04:00:12.673Z,94959.00
2023-04-18T04:01:12.665Z,94961.00
2023-04-18T04:02:12.767Z,94961.00
2023-04-18T04:03:12.879Z,94963.00
2023-04-18T04:04:13.192Z,94961.00
2023-04-18T04:05:12.819Z,94963.00
2023-04-18T04:06:12.894Z,94961.00
2023-04-18T04:07:12.884Z,94959.00
2023-04-18T04:08:12.916Z,94961.00
2023-04-18T04:09:12.943Z,94959.00
2023-04-18T04:10:13.008Z,94965.00
2023-04-18T04:11:13.064Z,94963.00
2023-04-18T04:12:13.074Z,94961.00
2023-04-18T04:13:13.155Z,94963.00
2023-04-18T04:14:13.502Z,94967.00
2023-04-18T04:15:13.227Z,94965.00
2023-04-18T04:16:13.280Z,94963.00
2023-04-18T04:17:13.274Z,94967.00
2023-04-18T04:18:13.332Z,94965.00
2023-04-18T04:19:13.325Z,94965.00
2023-04-18T04:20:13.396Z,94967.00
2023-04-18T04:21:13.457Z,94965.00
2023-04-18T04:22:13.443Z,94967.00
2023-04-18T04:23:13.497Z,94969.00
2023-04-18T04:24:13.871Z,94971.00
2023-04-18T04:25:13.605Z,94973.00
2023-04-18T04:26:13.591Z,94975.00
2023-04-18T04:27:13.659Z,94973.00
2023-04-18T04:28:13.753Z,94973.00
2023-04-18T04:29:13.736Z,94973.00
2023-04-18T04:30:13.786Z,94973.00
2023-04-18T04:31:13.846Z,94977.00
2023-04-18T04:32:13.875Z,94975.00
2023-04-18T04:33:13.885Z,94975.00
2023-04-18T04:34:14.353Z,94975.00
2023-04-18T04:35:14.622Z,94977.00
2023-04-18T04:36:14.388Z,94975.00
2023-04-18T04:37:14.108Z,94979.00
2023-04-18T04:38:14.159Z,94981.00
2023-04-18T04:39:14.105Z,94981.00
2023-04-18T04:40:14.168Z,94983.00
2023-04-18T04:41:14.169Z,94979.00
2023-04-18T04:42:14.195Z,94981.00
2023-04-18T04:43:14.272Z,94981.00
2023-04-18T04:44:14.481Z,94981.00
2023-04-18T04:45:14.313Z,94981.00
2023-04-18T04:46:14.405Z,94981.00
2023-04-18T04:47:14.396Z,94983.00
2023-04-18T04:48:14.465Z,94981.00
2023-04-18T04:49:14.487Z,94983.00
2023-04-18T04:50:14.511Z,94981.00
2023-04-18T04:51:14.563Z,94983.00
2023-04-18T04:52:14.574Z,94983.00
2023-04-18T04:53:14.636Z,94985.00
2023-04-18T04:54:14.750Z,94985.00
2023-04-18T04:55:14.695Z,94985.00
2023-04-18T04:56:14.859Z,94987.00
2023-04-18T04:57:14.794Z,94987.00
2023-04-18T04:58:14.845Z,94987.00
2023-04-18T04:59:14.860Z,94989.00
2023-04-18T05:00:14.901Z,94987.00
2023-04-18T05:01:14.964Z,94989.00
2023-04-18T05:02:15.040Z,94989.00
2023-04-18T05:03:15.108Z,94991.00
2023-04-18T05:04:15.498Z,94991.00
2023-04-18T05:05:15.128Z,94992.00
2023-04-18T05:06:15.144Z,94989.00
2023-04-18T05:07:15.188Z,94992.00
2023-04-18T05:08:15.253Z,94991.00
2023-04-18T05:09:15.254Z,94991.00
2023-04-18T05:10:15.316Z,94992.00
2023-04-18T05:11:15.354Z,94992.00
2023-04-18T05:12:15.384Z,94994.00
2023-04-18T05:13:15.434Z,94994.00
2023-04-18T05:14:15.856Z,94996.00
2023-04-18T05:15:15.497Z,94996.00
2023-04-18T05:16:15.609Z,94996.00
2023-04-18T05:17:15.559Z,94996.00
2023-04-18T05:18:15.585Z,94998.00
2023-04-18T05:19:15.639Z,94994.00
2023-04-18T05:20:15.712Z,94998.00
2023-04-18T05:21:15.757Z,94998.00
2023-04-18T05:22:15.817Z,94996.00
2023-04-18T05:23:15.835Z,94998.00
2023-04-18T05:24:16.076Z,94998.00
2023-04-18T05:25:15.930Z,94996.00
2023-04-18T05:26:15.941Z,94998.00
2023-04-18T05:27:18.038Z,94996.00
2023-04-18T05:28:16.039Z,94998.00
2023-04-18T05:29:16.054Z,94992.00
2023-04-18T05:30:16.138Z,94996.00
2023-04-18T05:31:16.233Z,94994.00
2023-04-18T05:32:16.196Z,94994.00
2023-04-18T05:33:16.234Z,94994.00
2023-04-18T05:34:16.453Z,94994.00
2023-04-18T05:35:16.355Z,94991.00
2023-04-18T05:36:16.370Z,94991.00
2023-04-18T05:37:16.497Z,94992.00
2023-04-18T05:38:16.586Z,94994.00
2023-04-18T05:39:16.563Z,94992.00
2023-04-18T05:40:16.620Z,94994.00
2023-04-18T05:41:16.712Z,94992.00
2023-04-18T05:42:16.757Z,94994.00
2023-04-18T05:43:17.768Z,94998.00
2023-04-18T05:44:17.230Z,94994.00
2023-04-18T05:45:16.876Z,94996.00
2023-04-18T05:46:16.954Z,94998.00
2023-04-18T05:47:16.842Z,95000.00
2023-04-18T05:48:16.821Z,95008.00
2023-04-18T05:49:16.861Z,95008.00
2023-04-18T05:50:16.865Z,95006.00
2023-04-18T05:51:17.187Z,95008.00
2023-04-18T05:52:16.901Z,95008.00
2023-04-18T05:53:16.964Z,95008.00
2023-04-18T05:54:16.996Z,95008.00
2023-04-18T05:55:17.086Z,95010.00
2023-04-18T05:56:17.084Z,95008.00
2023-04-18T05:57:17.181Z,95014.00
2023-04-18T05:58:17.122Z,95010.00
2023-04-18T05:59:17.208Z,95012.00
2023-04-18T06:00:17.166Z,95012.00
2023-04-18T06:01:17.657Z,95008.00
2023-04-18T06:02:17.342Z,95010.00
2023-04-18T06:03:17.585Z,95010.00
2023-04-18T06:04:17.874Z,95010.00
2023-04-18T06:05:17.881Z,95012.00
2023-04-18T06:06:17.505Z,95014.00
2023-04-18T06:07:17.484Z,95016.00
2023-04-18T06:08:17.503Z,95016.00
2023-04-18T06:09:17.532Z,95016.00
2023-04-18T06:10:17.589Z,95020.00
2023-04-18T06:11:17.583Z,95018.00
2023-04-18T06:12:17.635Z,95018.00
2023-04-18T06:13:17.602Z,95020.00
2023-04-18T06:14:17.658Z,95020.00
2023-04-18T06:15:17.653Z,95020.00
2023-04-18T06:16:17.745Z,95020.00
2023-04-18T06:17:17.662Z,95022.00
2023-04-18T06:18:17.615Z,95026.00
2023-04-18T06:19:17.644Z,95022.00
2023-04-18T06:20:18.208Z,95036.00
2023-04-18T06:21:17.641Z,95026.00
2023-04-18T06:22:17.666Z,95024.00
2023-04-18T06:23:17.716Z,95026.00
2023-04-18T06:24:17.678Z,95026.00
2023-04-18T06:25:17.690Z,95026.00
2023-04-18T06:26:17.744Z,95026.00
2023-04-18T06:27:30.557Z,95028.00
2023-04-18T06:28:18.773Z,95028.00
2023-04-18T06:29:17.774Z,95028.00
2023-04-18T06:30:17.749Z,95028.00
2023-04-18T06:31:18.211Z,95028.00
2023-04-18T06:32:17.769Z,95032.00
2023-04-18T06:33:18.209Z,95030.00
2023-04-18T06:34:17.727Z,95028.00
2023-04-18T06:35:18.202Z,95030.00
2023-04-18T06:36:17.984Z,95034.00
2023-04-18T06:37:17.857Z,95034.00
2023-04-18T06:38:17.921Z,95030.00
2023-04-18T06:39:18.029Z,95030.00
2023-04-18T06:40:18.066Z,95028.00
2023-04-18T06:41:18.007Z,95032.00
2023-04-18T06:42:19.662Z,95032.00
2023-04-18T06:43:18.124Z,95028.00
2023-04-18T06:44:18.027Z,95028.00
2023-04-18T06:45:17.969Z,95032.00
2023-04-18T06:46:18.721Z,95030.00
2023-04-18T06:47:17.987Z,95032.00
2023-04-18T06:48:18.190Z,95030.00
2023-04-18T06:49:17.936Z,95032.00
2023-04-18T06:50:17.969Z,95032.00
2023-04-18T06:51:17.899Z,95026.00
2023-04-18T06:52:17.912Z,95032.00
2023-04-18T06:53:17.914Z,95030.00
2023-04-18T06:54:17.946Z,95034.00
2023-04-18T06:55:17.885Z,95032.00
2023-04-18T06:56:17.902Z,95032.00
2023-04-18T06:57:17.911Z,95034.00
2023-04-18T06:58:17.903Z,95032.00
2023-04-18T06:59:17.860Z,95028.00
2023-04-18T07:00:17.886Z,95030.00
2023-04-18T07:01:17.866Z,95030.00
2023-04-18T07:02:17.969Z,95028.00
2023-04-18T07:03:18.013Z,95028.00
2023-04-18T07:04:18.144Z,95032.00
2023-04-18T07:05:17.848Z,95030.00
2023-04-18T07:06:17.785Z,95032.00
2023-04-18T07:07:17.821Z,95030.00
2023-04-18T07:08:17.823Z,95030.00
2023-04-18T07:09:17.817Z,95026.00
2023-04-18T07:10:17.787Z,95032.00
2023-04-18T07:11:18.242Z,95036.00
2023-04-18T07:12:17.754Z,95032.00
2023-04-18T07:13:17.739Z,95032.00
2023-04-18T07:14:17.746Z,95030.00
2023-04-18T07:15:17.850Z,95032.00
2023-04-18T07:16:19.123Z,95032.00
2023-04-18T07:17:17.695Z,95030.00
2023-04-18T07:18:30.343Z,95032.00
2023-04-18T07:19:18.875Z,95028.00
2023-04-18T07:20:17.758Z,95026.00
2023-04-18T07:21:17.872Z,95024.00
2023-04-18T07:22:17.682Z,95024.00
2023-04-18T07:23:17.711Z,95020.00
2023-04-18T07:24:17.704Z,95020.00
2023-04-18T07:25:17.636Z,95020.00
2023-04-18T07:26:17.699Z,95022.00
2023-04-18T07:27:17.756Z,95026.00
2023-04-18T07:28:17.634Z,95024.00
2023-04-18T07:29:17.710Z,95026.00
2023-04-18T07:30:17.673Z,95026.00
2023-04-18T07:31:17.709Z,95022.00
2023-04-18T07:32:17.679Z,95024.00
2023-04-18T07:33:17.657Z,95024.00
2023-04-18T07:34:17.634Z,95026.00
2023-04-18T07:35:17.688Z,95030.00
2023-04-18T07:36:17.702Z,95026.00
2023-04-18T07:37:17.596Z,95030.00
2023-04-18T07:38:18.228Z,95030.00
2023-04-18T07:39:17.619Z,95032.00
2023-04-18T07:40:17.586Z,95032.00
2023-04-18T07:41:17.615Z,95028.00
2023-04-18T07:42:17.701Z,95032.00
2023-04-18T07:43:18.714Z,95032.00
2023-04-18T07:44:17.750Z,95030.00
2023-04-18T07:45:17.815Z,95032.00
2023-04-18T07:46:17.924Z,95034.00
2023-04-18T07:47:22.251Z,95032.00
2023-04-18T07:48:17.839Z,95032.00
2023-04-18T07:49:17.694Z,95030.00
2023-04-18T07:50:17.687Z,95030.00
2023-04-18T07:51:17.705Z,95032.00
2023-04-18T07:52:17.706Z,95030.00
2023-04-18T07:53:17.707Z,95034.00
2023-04-18T07:54:18.114Z,95030.00
2023-04-18T07:55:18.223Z,95028.00
2023-04-18T07:56:17.637Z,95024.00
2023-04-18T07:57:17.651Z,95028.00
2023-04-18T07:58:17.656Z,95028.00
2023-04-18T07:59:17.605Z,95024.00
2023-04-18T08:00:17.613Z,95022.00
2023-04-18T08:01:17.633Z,95020.00
2023-04-18T08:02:17.815Z,95024.00
2023-04-18T08:03:17.798Z,95024.00
2023-04-18T08:04:17.955Z,95022.00
2023-04-18T08:05:17.644Z,95022.00
2023-04-18T08:06:17.555Z,95020.00
2023-04-18T08:07:17.602Z,95022.00
2023-04-18T08:08:17.568Z,95022.00
2023-04-18T08:09:17.819Z,95022.00
2023-04-18T08:10:17.578Z,95020.00
2023-04-18T08:11:17.626Z,95020.00
2023-04-18T08:12:17.533Z,95018.00
2023-04-18T08:13:17.601Z,95018.00
2023-04-18T08:14:17.515Z,95020.00
2023-04-18T08:15:17.505Z,95020.00
2023-04-18T08:16:17.764Z,95016.00
2023-04-18T08:17:17.579Z,95016.00
2023-04-18T08:18:17.642Z,95014.00
2023-04-18T08:19:17.740Z,95010.00
2023-04-18T08:20:17.592Z,95012.00
2023-04-18T08:21:17.603Z,95012.00
2023-04-18T08:22:17.609Z,95014.00
2023-04-18T08:23:17.619Z,95012.00
2023-04-18T08:24:17.630Z,95010.00
2023-04-18T08:25:17.722Z,95008.00
2023-04-18T08:26:17.649Z,95006.00
2023-04-18T08:27:17.694Z,95008.00
2023-04-18T08:28:17.744Z,95008.00
2023-04-18T08:29:17.821Z,95008.00
2023-04-18T08:30:17.863Z,95008.00
2023-04-18T08:31:17.860Z,95004.00
2023-04-18T08:32:17.878Z,95002.00
2023-04-18T08:33:17.950Z,95000.00
2023-04-18T08:34:17.987Z,95002.00
2023-04-18T08:35:18.048Z,95000.00
2023-04-18T08:36:18.128Z,95000.00
2023-04-18T08:37:18.131Z,95000.00
2023-04-18T08:38:18.177Z,94996.00
2023-04-18T08:39:18.144Z,94998.00
2023-04-18T08:40:18.188Z,95002.00
2023-04-18T08:41:18.194Z,95002.00
2023-04-18T08:42:18.220Z,95002.00
2023-04-18T08:43:18.243Z,94998.00
2023-04-18T08:44:18.267Z,95000.00
2023-04-18T08:45:18.267Z,95002.00
2023-04-18T08:46:18.316Z,95000.00
2023-04-18T08:47:18.335Z,95002.00
2023-04-18T08:48:18.718Z,95008.00
2023-04-18T08:49:18.458Z,95008.00
2023-04-18T08:50:18.528Z,95010.00
2023-04-18T08:51:18.676Z,95004.00
2023-04-18T08:52:18.718Z,95010.00
2023-04-18T08:53:18.743Z,95006.00
2023-04-18T08:54:18.641Z,95004.00
2023-04-18T08:55:18.639Z,95008.00
2023-04-18T08:56:18.646Z,95002.00
2023-04-18T08:57:18.633Z,95004.00
2023-04-18T08:58:18.624Z,95006.00
2023-04-18T08:59:18.627Z,95006.00
2023-04-18T09:00:19.653Z,95010.00
2023-04-18T09:01:18.667Z,95012.00
2023-04-18T09:02:18.726Z,95008.00
2023-04-18T09:03:18.667Z,95008.00
2023-04-18T09:04:18.821Z,95008.00
2023-04-18T09:05:18.655Z,95008.00
2023-04-18T09:06:18.742Z,95008.00
2023-04-18T09:07:18.780Z,95012.00
2023-04-18T09:08:19.212Z,95008.00
2023-04-18T09:09:19.253Z,95010.00
2023-04-18T09:10:18.913Z,95006.00
2023-04-18T09:11:18.922Z,95008.00
2023-04-18T09:12:18.868Z,95002.00
2023-04-18T09:13:18.893Z,95006.00
2023-04-18T09:14:18.957Z,95004.00
2023-04-18T09:15:18.931Z,95006.00
2023-04-18T09:16:18.982Z,95004.00
2023-04-18T09:17:18.981Z,95004.00
2023-04-18T09:18:18.988Z,95000.00
2023-04-18T09:19:19.134Z,95000.00
2023-04-18T09:20:19.031Z,95000.00
2023-04-18T09:21:19.105Z,95002.00
2023-04-18T09:22:19.129Z,95000.00
2023-04-18T09:23:19.096Z,94998.00
2023-04-18T09:24:19.113Z,95002.00
2023-04-18T09:25:19.121Z,94998.00
2023-04-18T09:26:19.162Z,94998.00
2023-04-18T09:27:19.124Z,95000.00
2023-04-18T09:28:19.737Z,95000.00
2023-04-18T09:29:19.145Z,94998.00
2023-04-18T09:30:19.146Z,94998.00
2023-04-18T09:31:19.180Z,95000.00
2023-04-18T09:32:19.259Z,94996.00
2023-04-18T09:33:19.376Z,94996.00
2023-04-18T09:34:19.222Z,94994.00
2023-04-18T09:35:19.214Z,94992.00
2023-04-18T09:36:19.342Z,94992.00
2023-04-18T09:37:19.258Z,94992.00
2023-04-18T09:38:19.361Z,94991.00
2023-04-18T09:39:19.359Z,94992.00
2023-04-18T09:40:19.364Z,94989.00
2023-04-18T09:41:21.517Z,94989.00
2023-04-18T09:42:19.406Z,94991.00
2023-04-18T09:43:19.385Z,94989.00
2023-04-18T09:44:19.520Z,94989.00
2023-04-18T09:45:19.400Z,94987.00
2023-04-18T09:46:19.499Z,94987.00
2023-04-18T09:47:19.501Z,94989.00
2023-04-18T09:48:19.625Z,94987.00
2023-04-18T09:49:19.626Z,94985.00
2023-04-18T09:50:19.693Z,94989.00
2023-04-18T09:51:19.761Z,94989.00
2023-04-18T09:52:19.772Z,94985.00
2023-04-18T09:53:20.937Z,94985.00
2023-04-18T09:54:19.860Z,94985.00
2023-04-18T09:55:19.985Z,94985.00
2023-04-18T09:56:19.997Z,94985.00
2023-04-18T09:57:20.121Z,94983.00
2023-04-18T09:58:20.087Z,94983.00
2023-04-18T09:59:21.221Z,94985.00
2023-04-18T10:00:20.205Z,94985.00
2023-04-18T10:01:20.323Z,94983.00
2023-04-18T10:02:20.345Z,94979.00
2023-04-18T10:03:20.421Z,94979.00
2023-04-18T10:04:20.393Z,94977.00
2023-04-18T10:05:21.382Z,94973.00
2023-04-18T10:06:20.352Z,94973.00
2023-04-18T10:07:20.366Z,94975.00
2023-04-18T10:08:21.320Z,94975.00
2023-04-18T10:09:20.766Z,94973.00
2023-04-18T10:10:20.325Z,94971.00
2023-04-18T10:11:20.380Z,94971.00
2023-04-18T10:12:20.361Z,94971.00
2023-04-18T10:13:20.314Z,94973.00
2023-04-18T10:14:20.320Z,94969.00
2023-04-18T10:15:20.360Z,94967.00
2023-04-18T10:16:20.827Z,94967.00
2023-04-18T10:17:20.339Z,94967.00
2023-04-18T10:18:20.494Z,94961.00
2023-04-18T10:19:20.301Z,94959.00
2023-04-18T10:20:20.247Z,94957.00
2023-04-18T10:21:20.257Z,94955.00
2023-04-18T10:22:20.250Z,94955.00
2023-04-18T10:23:20.268Z,94951.00
2023-04-18T10:24:20.282Z,94951.00
2023-04-18T10:25:20.226Z,94951.00
2023-04-18T10:26:20.231Z,94949.00
2023-04-18T10:27:20.812Z,94947.00
2023-04-18T10:28:20.311Z,94945.00
2023-04-18T10:29:20.266Z,94943.00
2023-04-18T10:30:20.219Z,94943.00
2023-04-18T10:31:20.248Z,94941.00
2023-04-18T10:32:20.280Z,94940.00
2023-04-18T10:33:30.482Z,94943.00
2023-04-18T10:34:21.415Z,94940.00
2023-04-18T10:35:20.234Z,94938.00
2023-04-18T10:36:20.266Z,94934.00
2023-04-18T10:37:20.270Z,94932.00
2023-04-18T10:38:20.803Z,94932.00
2023-04-18T10:39:20.277Z,94930.00
2023-04-18T10:40:20.227Z,94930.00
2023-04-18T10:41:20.188Z,94934.00
2023-04-18T10:42:20.199Z,94934.00
2023-04-18T10:43:20.200Z,94934.00
2023-04-18T10:44:20.210Z,94930.00
2023-04-18T10:45:20.219Z,94926.00
2023-04-18T10:46:31.069Z,94928.00
2023-04-18T10:47:21.277Z,94926.00
2023-04-18T10:48:20.314Z,94926.00
2023-04-18T10:49:20.130Z,94924.00
2023-04-18T10:50:20.143Z,94920.00
2023-04-18T10:51:20.104Z,94924.00
2023-04-18T10:52:20.188Z,94920.00
2023-04-18T10:53:20.268Z,94924.00
2023-04-18T10:54:20.113Z,94922.00
2023-04-18T10:55:20.073Z,94922.00
2023-04-18T10:56:20.086Z,94918.00
2023-04-18T10:57:20.081Z,94920.00
2023-04-18T10:58:20.108Z,94918.00
2023-04-18T10:59:20.311Z,94918.00
2023-04-18T11:00:20.050Z,94912.00
2023-04-18T11:01:20.078Z,94912.00
2023-04-18T11:02:20.147Z,94910.00
2023-04-18T11:03:20.111Z,94910.00
2023-04-18T11:04:20.347Z,94910.00
2023-04-18T11:05:20.036Z,94914.00
2023-04-18T11:06:19.997Z,94914.00
2023-04-18T11:07:20.763Z,94910.00
2023-04-18T11:08:20.007Z,94906.00
2023-04-18T11:09:19.988Z,94904.00
2023-04-18T11:10:20.101Z,94900.00
2023-04-18T11:11:19.972Z,94898.00
2023-04-18T11:12:20.031Z,94898.00
2023-04-18T11:13:19.947Z,94894.00
2023-04-18T11:14:20.300Z,94894.00
2023-04-18T11:15:19.925Z,94898.00
2023-04-18T11:16:20.015Z,94896.00
2023-04-18T11:17:19.975Z,94896.00
2023-04-18T11:18:19.922Z,94896.00
2023-04-18T11:19:20.342Z,94896.00
2023-04-18T11:20:19.949Z,94896.00
2023-04-18T11:21:19.947Z,94896.00
2023-04-18T11:22:19.893Z,94887.00
2023-04-18T11:23:19.925Z,94887.00
2023-04-18T11:24:19.920Z,94885.00
2023-04-18T11:25:20.305Z,94885.00
2023-04-18T11:26:20.002Z,94887.00
2023-04-18T11:27:19.899Z,94885.00
2023-04-18T11:28:19.921Z,94887.00
2023-04-18T11:29:19.838Z,94894.00
2023-04-18T11:30:20.355Z,94885.00
2023-04-18T11:31:25.729Z,94885.00
2023-04-18T11:32:20.545Z,94883.00
2023-04-18T11:33:19.829Z,94883.00
2023-04-18T11:34:19.837Z,94883.00
2023-04-18T11:35:19.850Z,94883.00
2023-04-18T11:36:20.824Z,94881.00
2023-04-18T11:37:19.868Z,94883.00
2023-04-18T11:38:19.804Z,94883.00
2023-04-18T11:39:19.817Z,94885.00
2023-04-18T11:40:19.782Z,94883.00
2023-04-18T11:41:19.767Z,94883.00
2023-04-18T11:42:19.779Z,94883.00
2023-04-18T11:43:19.789Z,94885.00
2023-04-18T11:44:19.737Z,94881.00